TimeAST,TemperatureF,Dew PointF,Humidity,Sea Level PressureIn,VisibilityMPH,Wind Direction,Wind SpeedMPH,Gust SpeedMPH,PrecipitationIn,Events,Conditions,WindDirDegrees,DateUTC
12:00 AM,80.6,77.0,89,29.95,6.2,Variable,2.3,-,N/A,,Partly Cloudy,0,2013-05-06 04:00:00
1:00 AM,80.6,77.0,89,29.92,6.2,Variable,3.5,-,N/A,,Partly Cloudy,0,2013-05-06 05:00:00
2:00 AM,81,77,84,29.93,9,SE,2.3,,,,Scattered Clouds,130,2013-05-06 06:00:00
2:00 AM,80.6,77.0,89,29.92,6.2,SE,4.6,-,N/A,,Partly Cloudy,130,2013-05-06 06:00:00
3:00 AM,80.6,77.0,89,29.92,6.2,SE,4.6,-,N/A,,Partly Cloudy,140,2013-05-06 07:00:00
4:00 AM,80.6,77.0,89,29.92,6.2,Variable,3.5,-,N/A,,Partly Cloudy,0,2013-05-06 08:00:00
5:00 AM,80,77,86,29.94,9,SE,3.5,,,Thunderstorm,Thunderstorm,130,2013-05-06 09:00:00
5:00 AM,80.6,77.0,89,29.95,6.2,Variable,3.5,-,N/A,Thunderstorm,Light Thunderstorm,0,2013-05-06 09:00:00
6:00 AM,77.0,73.4,89,29.95,3.1,West,8.1,-,N/A,Rain-Thunderstorm,Light Thunderstorms and Rain,260,2013-05-06 10:00:00
7:00 AM,77.0,73.4,89,29.98,5.0,Variable,2.3,-,N/A,Thunderstorm,Light Thunderstorm,0,2013-05-06 11:00:00
8:00 AM,76,74,90,30.00,6,Calm,Calm,,,Rain,Light Rain Showers,160,2013-05-06 12:00:00
8:00 AM,77.0,73.4,89,29.99,6.2,SSE,5.8,-,N/A,Rain,Light Rain Showers,160,2013-05-06 12:00:00
9:00 AM,78.8,75.2,89,30.01,6.2,SSE,4.6,-,N/A,,Mostly Cloudy,150,2013-05-06 13:00:00
10:00 AM,80.6,73.4,79,30.01,6.2,SSE,5.8,-,N/A,,Mostly Cloudy,150,2013-05-06 14:00:00
11:00 AM,82,72,66,30.01,12,South,4.6,,,,Partly Cloudy,170,2013-05-06 15:00:00
11:00 AM,82.4,71.6,70,30.01,6.2,South,4.6,-,N/A,,Mostly Cloudy,170,2013-05-06 15:00:00
12:00 PM,82.4,73.4,74,30.01,6.2,South,4.6,-,N/A,,Mostly Cloudy,170,2013-05-06 16:00:00
1:00 PM,82.4,75.2,79,29.98,6.2,SSE,5.8,-,N/A,,Scattered Clouds,150,2013-05-06 17:00:00
2:00 PM,83,76,73,29.97,25,SSE,8.1,,,,Partly Cloudy,160,2013-05-06 18:00:00
2:00 PM,82.4,75.2,79,29.95,6.2,SSE,6.9,-,N/A,,Scattered Clouds,150,2013-05-06 18:00:00
3:00 PM,84.2,75.2,74,29.95,6.2,SSE,5.8,-,N/A,,Scattered Clouds,150,2013-05-06 19:00:00
4:00 PM,82.4,75.2,79,29.95,6.2,SSE,4.6,-,N/A,,Scattered Clouds,160,2013-05-06 20:00:00
5:00 PM,83,75,72,29.97,25,South,5.8,,,,Partly Cloudy,170,2013-05-06 21:00:00
5:00 PM,82.4,75.2,79,29.95,6.2,SSE,4.6,-,N/A,,Scattered Clouds,150,2013-05-06 21:00:00
6:00 PM,80.6,75.2,84,29.98,6.2,SE,5.8,-,N/A,,Partly Cloudy,140,2013-05-06 22:00:00
7:00 PM,80.6,75.2,84,29.98,6.2,SE,6.9,-,N/A,,Partly Cloudy,140,2013-05-06 23:00:00
8:00 PM,80,75,82,30.00,19,South,3.5,,,,Scattered Clouds,170,2013-05-07 00:00:00
8:00 PM,80.6,75.2,84,29.98,6.2,Variable,3.5,-,N/A,,Partly Cloudy,0,2013-05-07 00:00:00
9:00 PM,80.6,75.2,84,30.01,6.2,Variable,3.5,-,N/A,,Partly Cloudy,0,2013-05-07 01:00:00
10:00 PM,80.6,75.2,84,30.01,6.2,SE,3.5,-,N/A,,Partly Cloudy,130,2013-05-07 02:00:00
11:00 PM,80,76,84,30.04,19,,2.3,,,,Partly Cloudy,,2013-05-07 03:00:00
11:00 PM,80.6,75.2,84,30.04,6.2,Variable,2.3,-,N/A,,Scattered Clouds,0,2013-05-07 03:00:00